Time;durP1;ratioP1;P1;durP2;ratioP2;P2;SDS_P1;SDS_P2;PMS_P1;PMS_P2;Temp;Humidity;BMP_temperature;BMP_pressure;BME280_temperature;BME280_humidity;BME280_pressure;Samples;Min_cycle;Max_cycle;Signal;HPM_P1;HPM_P2
2023/03/10 00:01:24;;;;;;;11.45;8.35;;;;;;;6.51;100.00;98675.47;5135638;27;20067;-71
2023/03/10 00:03:51;;;;;;;14.00;8.82;;;;;;;6.47;100.00;98678.16;5118818;27;20108;-70
2023/03/10 00:06:19;;;;;;;11.02;7.72;;;;;;;6.55;100.00;98693.81;5136025;27;20066;-71
2023/03/10 00:08:45;;;;;;;11.98;8.40;;;;;;;6.55;100.00;98692.03;5136295;27;20018;-70
2023/03/10 00:11:11;;;;;;;10.85;8.13;;;;;;;6.59;100.00;98687.66;5135971;27;20384;-71
2023/03/10 00:13:37;;;;;;;10.50;7.85;;;;;;;6.58;100.00;98684.16;5136129;27;20051;-71
2023/03/10 00:16:03;;;;;;;10.80;7.65;;;;;;;6.64;100.00;98693.75;5135814;27;20034;-71
2023/03/10 00:18:30;;;;;;;12.32;7.68;;;;;;;6.66;100.00;98700.72;5135790;27;20107;-71
2023/03/10 00:20:55;;;;;;;10.98;7.75;;;;;;;6.66;100.00;98694.59;5117320;27;20469;-71
2023/03/10 00:23:21;;;;;;;11.43;7.55;;;;;;;6.67;100.00;98688.47;5135710;27;20030;-71
2023/03/10 00:25:58;;;;;;;10.20;7.43;;;;;;;6.70;100.00;98693.69;5135889;27;20023;-71
2023/03/10 00:28:25;;;;;;;10.40;7.30;;;;;;;6.70;100.00;98685.81;5135791;27;20072;-71
2023/03/10 00:31:03;;;;;;;10.38;7.68;;;;;;;6.78;100.00;98681.38;5135353;27;20469;-71
2023/03/10 00:33:30;;;;;;;9.60;7.22;;;;;;;6.79;100.00;98677.88;5117092;27;20490;-71
2023/03/10 00:36:08;;;;;;;10.05;7.40;;;;;;;6.84;100.00;98673.44;5117220;27;20030;-71
2023/03/10 00:38:35;;;;;;;9.93;7.40;;;;;;;6.80;100.00;98665.59;5135263;27;20503;-71
2023/03/10 00:41:04;;;;;;;11.52;7.60;;;;;;;6.85;100.00;98674.31;5135330;27;20027;-71
2023/03/10 00:43:30;;;;;;;10.55;7.88;;;;;;;6.81;100.00;98681.34;5135256;27;20027;-70
2023/03/10 00:45:55;;;;;;;10.07;7.60;;;;;;;6.76;100.00;98684.00;5134371;27;20026;-71
2023/03/10 00:48:21;;;;;;;10.50;7.70;;;;;;;6.72;100.00;98681.41;5135424;27;20072;-70
2023/03/10 00:50:47;;;;;;;11.85;7.28;;;;;;;6.70;100.00;98689.31;5135166;27;20020;-71
2023/03/10 00:53:13;;;;;;;10.73;7.22;;;;;;;6.68;100.00;98683.22;5135375;27;20027;-70
2023/03/10 00:55:38;;;;;;;11.40;7.35;;;;;;;6.72;100.00;98686.66;5135095;27;20016;-70
2023/03/10 00:58:04;;;;;;;11.38;8.00;;;;;;;6.74;100.00;98690.16;5135091;27;20033;-70
2023/03/10 01:00:29;;;;;;;9.65;7.80;;;;;;;6.74;100.00;98684.91;5134814;27;20430;-70
2023/03/10 01:02:55;;;;;;;12.77;8.23;;;;;;;6.75;100.00;98692.75;5134903;27;20035;-70
2023/03/10 01:05:20;;;;;;;10.20;7.70;;;;;;;6.76;100.00;98693.63;5134803;27;20079;-70
2023/03/10 01:07:45;;;;;;;10.60;7.82;;;;;;;6.76;100.00;98699.75;5135005;27;20468;-70
2023/03/10 01:10:12;;;;;;;9.45;7.10;;;;;;;6.80;100.00;98684.84;5134763;27;20027;-70
2023/03/10 01:12:37;;;;;;;8.90;7.03;;;;;;;6.84;100.00;98686.56;5134838;27;20117;-70
2023/03/10 01:15:04;;;;;;;10.25;7.38;;;;;;;6.86;100.00;98686.56;5134660;27;20556;-70
2023/03/10 01:17:30;;;;;;;10.52;7.00;;;;;;;6.88;100.00;98679.53;5134660;27;20031;-70
2023/03/10 01:19:56;;;;;;;10.80;7.63;;;;;;;6.86;100.00;98668.19;5134529;27;20365;-70
2023/03/10 01:22:21;;;;;;;11.65;8.00;;;;;;;6.86;100.00;98669.06;5134617;27;20034;-69
2023/03/10 01:24:46;;;;;;;11.20;7.35;;;;;;;6.89;100.00;98663.75;5134725;27;20027;-70
2023/03/10 01:27:12;;;;;;;12.07;7.75;;;;;;;6.92;100.00;98669.00;5134528;27;20133;-69
2023/03/10 01:29:37;;;;;;;10.95;7.30;;;;;;;6.97;100.00;98656.69;5116137;27;20023;-69
2023/03/10 01:32:03;;;;;;;10.60;6.65;;;;;;;7.07;100.00;98660.09;5133510;27;20042;-67
2023/03/10 01:34:28;;;;;;;10.50;6.45;;;;;;;7.22;100.00;98659.91;5115934;27;20076;-67
2023/03/10 01:36:53;;;;;;;11.93;6.63;;;;;;;7.37;100.00;98658.03;5134398;27;20023;-67
2023/03/10 01:39:19;;;;;;;10.07;5.80;;;;;;;7.50;100.00;98657.84;5116060;27;20019;-67
2023/03/10 01:41:44;;;;;;;9.43;5.80;;;;;;;7.63;100.00;98655.94;5134210;27;20467;-66
2023/03/10 01:44:15;;;;;;;8.77;5.57;;;;;;;7.74;100.00;98656.66;5134215;27;20504;-66
2023/03/10 01:46:46;;;;;;;10.60;6.22;;;;;;;7.77;100.00;98643.47;5134400;27;20020;-67
2023/03/10 01:49:26;;;;;;;9.73;6.18;;;;;;;7.87;100.00;98654.75;5134469;27;20116;-67
2023/03/10 01:52:20;;;;;;;9.45;6.13;;;;;;;7.93;100.00;98654.66;5134205;27;20034;-67
2023/03/10 01:54:58;;;;;;;9.20;5.88;;;;;;;7.98;100.00;98636.19;5130350;27;20362;-66
2023/03/10 01:57:28;;;;;;;8.25;5.97;;;;;;;8.04;100.00;98628.19;5134105;27;20063;-66
2023/03/10 01:59:55;;;;;;;9.73;6.28;;;;;;;8.10;100.00;98632.53;5134186;27;20107;-66
2023/03/10 02:02:22;;;;;;;9.95;6.38;;;;;;;8.11;100.00;98637.75;5115338;28;20038;-66
2023/03/10 02:04:48;;;;;;;9.95;5.88;;;;;;;8.15;100.00;98630.69;5133760;28;20534;-67
2023/03/10 02:07:18;;;;;;;7.93;5.85;;;;;;;8.17;100.00;98637.66;5133986;28;20027;-66
2023/03/10 02:09:46;;;;;;;8.98;7.05;;;;;;;8.20;100.00;98634.97;5134208;28;20027;-66
2023/03/10 02:12:14;;;;;;;10.13;6.30;;;;;;;8.22;100.00;98638.47;5134186;27;20046;-66
2023/03/10 02:14:42;;;;;;;11.60;7.30;;;;;;;8.26;100.00;98639.25;5134105;28;20088;-66
2023/03/10 02:17:12;;;;;;;9.10;6.30;;;;;;;8.25;100.00;98638.41;5115411;28;20038;-66
2023/03/10 02:19:40;;;;;;;8.52;6.18;;;;;;;8.32;100.00;98643.59;5133887;28;20450;-66
2023/03/10 02:22:09;;;;;;;9.38;6.30;;;;;;;8.34;100.00;98632.13;5133802;28;20015;-66
2023/03/10 02:24:44;;;;;;;8.48;6.25;;;;;;;8.39;100.00;98619.78;5134083;28;20023;-66
2023/03/10 02:27:28;;;;;;;11.70;7.20;;;;;;;8.40;100.00;98612.78;5133804;28;20067;-67
2023/03/10 02:30:08;;;;;;;9.95;6.43;;;;;;;8.44;100.00;98607.44;5134006;28;20045;-66
2023/03/10 02:32:38;;;;;;;9.15;6.35;;;;;;;8.43;100.00;98605.69;5115318;28;20035;-66
2023/03/10 02:35:04;;;;;;;11.52;6.63;;;;;;;8.44;100.00;98604.81;5133798;28;20038;-66
2023/03/10 02:37:32;;;;;;;10.52;6.47;;;;;;;8.44;100.00;98591.66;5133953;28;20027;-66
2023/03/10 02:39:58;;;;;;;7.45;5.93;;;;;;;8.44;100.00;98603.97;5133962;27;20015;-66
2023/03/10 02:42:29;;;;;;;9.25;6.07;;;;;;;8.44;100.00;98598.69;5133554;28;20089;-67
2023/03/10 02:44:55;;;;;;;14.55;6.93;;;;;;;8.45;100.00;98601.28;5133941;28;20023;-67
2023/03/10 02:47:20;;;;;;;9.07;5.88;;;;;;;8.45;100.00;98598.66;5133811;28;20046;-67
2023/03/10 02:49:46;;;;;;;8.45;6.00;;;;;;;8.46;100.00;98579.31;5133667;28;20473;-69
2023/03/10 02:52:30;;;;;;;9.27;6.00;;;;;;;8.46;100.00;98589.84;5133623;28;20035;-68
2023/03/10 02:54:56;;;;;;;10.63;6.05;;;;;;;8.47;100.00;98586.31;5133796;28;20031;-67
2023/03/10 02:57:22;;;;;;;11.00;6.05;;;;;;;8.46;100.00;98581.09;5133430;28;20023;-67
2023/03/10 02:59:47;;;;;;;9.05;6.75;;;;;;;8.49;100.00;98584.56;5133430;28;20020;-67
2023/03/10 03:02:12;;;;;;;10.48;6.28;;;;;;;8.47;100.00;98573.16;5133141;28;20491;-68
2023/03/10 03:04:38;;;;;;;10.90;6.30;;;;;;;8.47;100.00;98574.94;5114934;28;20172;-68
2023/03/10 03:07:03;;;;;;;9.60;6.00;;;;;;;8.45;100.00;98571.47;5133399;27;20028;-68
2023/03/10 03:09:29;;;;;;;11.10;6.45;;;;;;;8.41;100.00;98560.13;5134286;27;20106;-68
2023/03/10 03:11:54;;;;;;;11.27;6.75;;;;;;;8.39;100.00;98561.91;5137133;27;20417;-67
2023/03/10 03:14:20;;;;;;;11.80;6.32;;;;;;;8.39;100.00;98569.78;5137047;27;20023;-67
2023/03/10 03:16:45;;;;;;;10.73;6.35;;;;;;;8.37;100.00;98563.69;5137244;27;20023;-67
2023/03/10 03:19:11;;;;;;;9.48;6.07;;;;;;;8.37;100.00;98561.06;5137223;27;20035;-68
2023/03/10 03:21:36;;;;;;;11.15;6.07;;;;;;;8.36;100.00;98561.06;5137127;27;20023;-68
2023/03/10 03:24:02;;;;;;;10.98;6.20;;;;;;;8.33;100.00;98550.59;5137030;27;20503;-68
2023/03/10 03:26:28;;;;;;;10.43;5.75;;;;;;;8.37;100.00;98557.56;5136819;27;20027;-68
2023/03/10 03:28:53;;;;;;;10.05;5.28;;;;;;;8.37;100.00;98557.56;5136818;27;20031;-68
2023/03/10 03:31:21;;;;;;;9.50;5.90;;;;;;;8.37;100.00;98552.31;5136564;27;20430;-67
2023/03/10 03:33:47;;;;;;;10.07;5.38;;;;;;;8.37;100.00;98552.31;5136851;27;20019;-67
2023/03/10 03:36:12;;;;;;;8.90;5.10;;;;;;;8.41;100.00;98554.00;5136658;27;20362;-67
2023/03/10 03:38:38;;;;;;;10.45;5.07;;;;;;;8.32;100.00;98531.31;5136672;27;20032;-67
2023/03/10 03:41:05;;;;;;;8.82;5.03;;;;;;;8.42;100.00;98550.47;5136822;27;20106;-67
2023/03/10 03:43:30;;;;;;;8.82;5.10;;;;;;;8.47;100.00;98559.13;5136405;27;20027;-67
2023/03/10 03:45:56;;;;;;;8.95;5.05;;;;;;;8.49;100.00;98560.88;5136638;27;20027;-67
2023/03/10 03:48:21;;;;;;;9.70;4.80;;;;;;;8.49;100.00;98557.38;5136469;27;20027;-67
2023/03/10 03:50:48;;;;;;;10.98;5.00;;;;;;;8.54;100.00;98558.16;5118379;27;20019;-67
2023/03/10 03:53:13;;;;;;;6.97;3.92;;;;;;;8.54;100.00;98552.88;5117873;27;20476;-67
2023/03/10 03:55:39;;;;;;;10.02;4.25;;;;;;;8.58;100.00;98554.56;5136564;27;20034;-67
2023/03/10 03:58:04;;;;;;;9.43;4.10;;;;;;;8.61;100.00;98551.00;5136283;27;20129;-67
2023/03/10 04:00:30;;;;;;;9.93;4.18;;;;;;;8.64;100.00;98551.81;5136069;27;20037;-68
2023/03/10 04:02:55;;;;;;;11.15;4.25;;;;;;;8.67;100.00;98548.25;5117711;27;20031;-67
2023/03/10 04:05:21;;;;;;;8.88;3.65;;;;;;;8.66;100.00;98549.16;5135987;27;20104;-68
2023/03/10 04:07:48;;;;;;;10.13;3.90;;;;;;;8.70;100.00;98546.44;5136032;27;20472;-68
2023/03/10 04:10:18;;;;;;;8.30;3.92;;;;;;;8.71;100.00;98539.41;5136033;27;20034;-68
2023/03/10 04:12:44;;;;;;;13.50;4.15;;;;;;;8.68;100.00;98535.06;5135584;27;20035;-68
2023/03/10 04:15:10;;;;;;;7.85;3.55;;;;;;;8.70;100.00;98535.91;5135810;27;20039;-68
2023/03/10 04:17:35;;;;;;;8.73;3.35;;;;;;;8.73;100.00;98534.97;5136130;27;20369;-68
2023/03/10 04:20:02;;;;;;;11.82;3.92;;;;;;;8.74;100.00;98528.84;5136029;27;20022;-68
2023/03/10 04:22:27;;;;;;;11.98;3.30;;;;;;;8.74;100.00;98532.31;5135685;27;20067;-68
2023/03/10 04:24:53;;;;;;;10.45;3.30;;;;;;;8.72;100.00;98528.84;5135791;27;20495;-68
2023/03/10 04:27:19;;;;;;;8.23;3.10;;;;;;;8.78;100.00;98530.50;5135953;27;20030;-68
2023/03/10 04:29:44;;;;;;;14.02;3.60;;;;;;;8.76;100.00;98535.78;5135641;27;20027;-68
2023/03/10 04:32:10;;;;;;;9.70;3.47;;;;;;;8.77;100.00;98531.38;5135476;27;20036;-68
2023/03/10 04:34:35;;;;;;;8.55;3.22;;;;;;;8.73;100.00;98535.84;5117142;27;20024;-68
2023/03/10 04:37:00;;;;;;;10.35;3.58;;;;;;;8.74;100.00;98537.59;5135463;27;20031;-68
2023/03/10 04:39:26;;;;;;;10.32;3.17;;;;;;;8.73;100.00;98527.94;5135395;27;20034;-68
2023/03/10 04:41:51;;;;;;;13.50;3.70;;;;;;;8.73;100.00;98532.34;5135564;27;20055;-68
2023/03/10 04:44:17;;;;;;;14.70;4.00;;;;;;;8.73;100.00;98521.81;5135580;27;20376;-68
2023/03/10 04:46:42;;;;;;;13.85;4.00;;;;;;;8.71;100.00;98521.84;5135543;27;20468;-68
2023/03/10 04:49:07;;;;;;;12.48;3.72;;;;;;;8.69;100.00;98521.03;5135451;27;20028;-68
2023/03/10 04:51:33;;;;;;;12.57;3.97;;;;;;;8.67;100.00;98514.03;5135235;27;20076;-68
2023/03/10 04:53:59;;;;;;;11.10;3.95;;;;;;;8.65;100.00;98515.81;5135223;27;20417;-68
2023/03/10 04:56:24;;;;;;;12.18;3.90;;;;;;;8.60;100.00;98515.91;5135400;27;20104;-68
2023/03/10 04:58:50;;;;;;;16.83;4.10;;;;;;;8.59;100.00;98514.19;5135030;27;20023;-68
2023/03/10 05:01:16;;;;;;;12.85;3.70;;;;;;;8.56;100.00;98508.09;5134782;27;20114;-68
2023/03/10 05:03:41;;;;;;;12.93;3.80;;;;;;;8.52;100.00;98508.19;5134803;27;20039;-68
2023/03/10 05:06:20;;;;;;;10.80;3.72;;;;;;;8.53;100.00;98509.91;5134994;27;20035;-68
2023/03/10 05:08:46;;;;;;;14.98;4.10;;;;;;;8.50;100.00;98507.31;5116396;27;20027;-68
2023/03/10 05:11:12;;;;;;;13.57;4.07;;;;;;;8.53;100.00;98516.94;5135004;27;20088;-68
2023/03/10 05:13:37;;;;;;;10.80;3.88;;;;;;;8.50;100.00;98507.31;5135028;27;20023;-68
2023/03/10 05:16:03;;;;;;;11.23;3.55;;;;;;;8.50;100.00;98506.47;5116309;27;20472;-67
2023/03/10 05:18:28;;;;;;;13.05;3.63;;;;;;;8.52;100.00;98513.44;5134722;27;20034;-67
2023/03/10 05:20:56;;;;;;;14.95;3.97;;;;;;;8.49;100.00;98502.97;5134670;27;20027;-67
2023/03/10 05:23:22;;;;;;;11.25;3.65;;;;;;;8.51;100.00;98506.41;5134570;27;20020;-68
2023/03/10 05:25:48;;;;;;;12.40;3.50;;;;;;;8.51;100.00;98511.69;5134557;27;20091;-67
2023/03/10 05:28:14;;;;;;;13.48;4.15;;;;;;;8.47;100.00;98499.47;5134603;27;20115;-68
2023/03/10 05:30:39;;;;;;;12.00;3.80;;;;;;;8.47;100.00;98504.72;5134229;27;20019;-67
2023/03/10 05:33:05;;;;;;;10.88;3.63;;;;;;;8.50;100.00;98509.09;5098816;27;20062;-67
2023/03/10 05:35:30;;;;;;;10.98;3.78;;;;;;;8.43;100.00;98497.78;5134591;27;20031;-67
2023/03/10 05:37:56;;;;;;;11.63;3.40;;;;;;;8.47;100.00;98512.63;5134417;27;20481;-67
2023/03/10 05:40:21;;;;;;;14.95;3.55;;;;;;;8.46;100.00;98508.28;5134306;27;20035;-67
2023/03/10 05:42:48;;;;;;;10.88;3.35;;;;;;;8.47;100.00;98509.13;5116164;27;20549;-67
2023/03/10 05:45:14;;;;;;;18.08;4.15;;;;;;;8.44;100.00;98510.06;5134170;27;20015;-67
2023/03/10 05:47:40;;;;;;;12.05;3.65;;;;;;;8.47;100.00;98510.00;5134219;27;20027;-67
2023/03/10 05:50:06;;;;;;;15.65;3.97;;;;;;;8.47;100.00;98519.66;5134215;27;20028;-67
2023/03/10 05:52:36;;;;;;;12.93;3.60;;;;;;;8.45;100.00;98518.84;5134503;27;20080;-68
2023/03/10 05:55:01;;;;;;;18.42;3.90;;;;;;;8.48;100.00;98521.41;5134026;27;20380;-68
2023/03/10 05:57:26;;;;;;;14.27;3.90;;;;;;;8.41;100.00;98510.13;5115782;28;20023;-68
2023/03/10 05:59:52;;;;;;;10.77;3.42;;;;;;;8.52;100.00;98517.81;5134092;27;20484;-68
2023/03/10 06:02:18;;;;;;;11.27;3.78;;;;;;;8.52;100.00;98510.81;5133741;27;20114;-68
2023/03/10 06:04:44;;;;;;;13.70;3.85;;;;;;;8.51;100.00;98516.09;5133338;28;20043;-68
2023/03/10 06:07:09;;;;;;;17.02;3.75;;;;;;;8.49;100.00;98518.75;5133089;28;20073;-68
2023/03/10 06:09:34;;;;;;;17.48;4.22;;;;;;;8.50;100.00;98517.84;5133204;28;20472;-68
2023/03/10 06:12:00;;;;;;;15.23;3.92;;;;;;;8.51;100.00;98521.34;5133135;28;20114;-69
2023/03/10 06:14:25;;;;;;;13.98;3.63;;;;;;;8.51;100.00;98522.22;5133239;28;20031;-69
2023/03/10 06:16:54;;;;;;;15.73;3.72;;;;;;;8.51;100.00;98514.31;5133374;28;20015;-69
2023/03/10 06:19:21;;;;;;;13.05;4.13;;;;;;;8.52;100.00;98518.72;5114656;28;20110;-69
2023/03/10 06:21:47;;;;;;;14.80;4.10;;;;;;;8.53;100.00;98530.97;5133094;28;20027;-69
2023/03/10 06:24:12;;;;;;;15.48;4.10;;;;;;;8.56;100.00;98529.16;5133149;28;20051;-69
2023/03/10 06:26:38;;;;;;;9.68;3.28;;;;;;;8.59;100.00;98537.00;5133266;28;20026;-69
2023/03/10 06:29:05;;;;;;;15.60;4.00;;;;;;;8.59;100.00;98527.34;5133102;28;20044;-69
2023/03/10 06:31:30;;;;;;;16.85;3.95;;;;;;;8.54;100.00;98529.19;5132949;28;20140;-69
2023/03/10 06:33:56;;;;;;;14.90;3.67;;;;;;;8.51;100.00;98523.97;5114645;28;20110;-69
2023/03/10 06:36:24;;;;;;;12.32;3.60;;;;;;;8.59;100.00;98535.22;5133549;28;20023;-69
2023/03/10 06:38:50;;;;;;;12.35;4.00;;;;;;;8.61;100.00;98543.09;5132972;27;20090;-69
2023/03/10 06:41:15;;;;;;;14.75;4.00;;;;;;;8.61;100.00;98538.72;5132993;28;20468;-69
2023/03/10 06:43:41;;;;;;;15.18;3.72;;;;;;;8.63;100.00;98544.81;5132796;27;20030;-69
2023/03/10 06:46:09;;;;;;;15.57;3.47;;;;;;;8.63;100.00;98543.94;5136377;27;20123;-69
2023/03/10 06:48:35;;;;;;;15.60;3.65;;;;;;;8.66;100.00;98543.91;5136949;27;20024;-69
2023/03/10 06:51:05;;;;;;;18.40;3.40;;;;;;;8.66;100.00;98549.16;5137059;27;20372;-71
2023/03/10 06:53:30;;;;;;;11.52;3.95;;;;;;;8.59;100.00;98527.34;5118576;27;20026;-69
2023/03/10 06:56:03;;;;;;;11.32;4.00;;;;;;;8.64;100.00;98538.66;5136821;27;20426;-69
2023/03/10 06:58:31;;;;;;;12.65;3.55;;;;;;;8.64;100.00;98537.78;5118575;27;20110;-69
2023/03/10 07:00:57;;;;;;;11.07;3.70;;;;;;;8.63;100.00;98542.19;5136472;27;20054;-70
2023/03/10 07:03:25;;;;;;;14.52;3.97;;;;;;;8.62;100.00;98544.84;5136578;27;20437;-70
2023/03/10 07:05:51;;;;;;;15.52;4.03;;;;;;;8.60;100.00;98544.88;5136900;27;20058;-70
2023/03/10 07:08:17;;;;;;;10.00;3.60;;;;;;;8.59;100.00;98543.13;5136746;27;20104;-70
2023/03/10 07:10:43;;;;;;;11.60;3.53;;;;;;;8.56;100.00;98532.66;5136815;27;20054;-70
2023/03/10 07:13:12;;;;;;;11.02;3.63;;;;;;;8.64;100.00;98541.28;5136621;27;20027;-70
2023/03/10 07:15:38;;;;;;;10.98;3.63;;;;;;;8.68;100.00;98542.97;5136562;27;20031;-70
2023/03/10 07:18:03;;;;;;;10.60;3.60;;;;;;;8.73;100.00;98545.50;5136445;27;20541;-70
2023/03/10 07:20:29;;;;;;;11.60;4.07;;;;;;;8.77;100.00;98545.41;5136532;27;20047;-70
2023/03/10 07:22:54;;;;;;;14.93;4.30;;;;;;;8.78;100.00;98541.91;5136289;27;20023;-70
2023/03/10 07:25:20;;;;;;;12.00;4.10;;;;;;;8.85;100.00;98547.91;5136397;27;20019;-70
2023/03/10 07:27:45;;;;;;;11.38;3.85;;;;;;;8.89;100.00;98559.25;5136072;27;20020;-69
2023/03/10 07:30:11;;;;;;;12.90;3.55;;;;;;;8.93;100.00;98548.63;5117831;27;20020;-69
2023/03/10 07:32:36;;;;;;;19.48;4.13;;;;;;;9.00;100.00;98559.94;5136160;27;20051;-69
2023/03/10 07:35:02;;;;;;;12.50;4.30;;;;;;;9.05;100.00;98558.06;5136108;27;20031;-70
2023/03/10 07:37:28;;;;;;;11.75;3.63;;;;;;;9.13;100.00;98561.41;5136125;27;20160;-70
2023/03/10 07:39:54;;;;;;;15.23;3.55;;;;;;;9.15;100.00;98549.06;5135880;27;20015;-70
2023/03/10 07:42:19;;;;;;;14.45;3.53;;;;;;;9.28;100.00;98569.00;5136198;27;20031;-70
2023/03/10 07:44:45;;;;;;;15.52;4.07;;;;;;;9.41;100.00;98563.47;5117316;27;20023;-70
2023/03/10 07:47:10;;;;;;;18.38;3.78;;;;;;;9.59;100.00;98564.84;5136038;27;20027;-70
2023/03/10 07:49:36;;;;;;;13.85;3.25;;;;;;;9.73;100.00;98566.28;5135956;27;20023;-70
2023/03/10 07:52:01;;;;;;;13.13;3.28;;;;;;;9.79;100.00;98563.50;5136250;27;20032;-70
2023/03/10 07:54:27;;;;;;;14.27;3.47;;;;;;;9.95;100.00;98569.28;5135845;27;20031;-70
2023/03/10 07:56:52;;;;;;;11.88;2.90;;;;;;;10.08;100.00;98571.63;5116883;27;20031;-70
2023/03/10 07:59:24;;;;;;;13.45;2.92;;;;;;;10.09;100.00;98570.72;5135733;27;20113;-70
2023/03/10 08:01:49;;;;;;;11.15;3.25;;;;;;;10.08;100.00;98564.59;5135270;27;20024;-69
2023/03/10 08:04:15;;;;;;;11.55;3.00;;;;;;;10.11;100.00;98568.94;5113497;28;20418;-70
2023/03/10 08:06:41;;;;;;;12.68;3.22;;;;;;;10.14;100.00;98568.84;5114936;28;20036;-69
2023/03/10 08:09:06;;;;;;;14.23;3.03;;;;;;;10.17;100.00;98579.34;5114999;28;20072;-69
2023/03/10 08:11:32;;;;;;;13.70;2.97;;;;;;;10.14;100.00;98572.34;5114945;28;20032;-69
2023/03/10 08:13:57;;;;;;;12.63;3.25;;;;;;;10.10;100.00;98565.41;5115212;28;20028;-69
2023/03/10 08:16:23;;;;;;;8.98;2.70;;;;;;;10.13;100.00;98570.63;5114557;27;20488;-69
2023/03/10 08:18:50;;;;;;;13.13;2.90;;;;;;;10.14;100.00;98580.25;5114809;28;20414;-69
2023/03/10 08:21:16;;;;;;;13.13;2.88;;;;;;;10.11;100.00;98575.06;5114572;28;20111;-69
2023/03/10 08:23:41;;;;;;;9.20;3.20;;;;;;;10.16;100.00;98577.59;5114550;28;20118;-67
2023/03/10 08:26:11;;;;;;;14.15;3.15;;;;;;;10.22;100.00;98566.88;5114816;28;20108;-69
2023/03/10 08:28:37;;;;;;;9.20;2.70;;;;;;;10.37;100.00;98571.84;5114522;28;20019;-68
2023/03/10 08:31:08;;;;;;;8.73;2.67;;;;;;;10.51;100.00;98579.41;5114211;28;20403;-67
2023/03/10 08:33:33;;;;;;;13.88;3.15;;;;;;;10.62;100.00;98573.81;5114308;28;20027;-68
2023/03/10 08:36:08;;;;;;;10.68;2.90;;;;;;;10.77;100.00;98573.44;5114500;28;20069;-68
2023/03/10 08:38:34;;;;;;;10.85;2.70;;;;;;;10.78;100.00;98577.81;5114255;28;20045;-67
2023/03/10 08:41:23;;;;;;;13.20;3.00;;;;;;;10.74;100.00;98571.72;5114433;28;20020;-68
2023/03/10 08:43:50;;;;;;;8.25;2.50;;;;;;;10.66;100.00;98579.03;5114108;28;20073;-68
2023/03/10 08:46:18;;;;;;;8.88;2.83;;;;;;;10.59;100.00;98573.94;5114569;28;20065;-68
2023/03/10 08:48:43;;;;;;;15.00;3.05;;;;;;;10.55;100.00;98577.56;5114256;28;20035;-68
2023/03/10 08:51:10;;;;;;;11.27;3.03;;;;;;;10.57;100.00;98583.66;5112937;28;20028;-68
2023/03/10 08:53:37;;;;;;;12.38;2.88;;;;;;;10.51;100.00;98576.75;5114107;27;20067;-67
2023/03/10 08:56:04;;;;;;;13.95;2.92;;;;;;;10.53;100.00;98575.81;5113958;28;20023;-68
2023/03/10 08:58:29;;;;;;;11.80;2.50;;;;;;;10.57;100.00;98579.22;5114066;28;20078;-67
2023/03/10 09:00:55;;;;;;;11.18;2.90;;;;;;;10.69;100.00;98576.28;5113625;28;20055;-68
2023/03/10 09:03:21;;;;;;;11.50;2.95;;;;;;;10.81;100.00;98579.50;5114039;28;20114;-68
2023/03/10 09:05:46;;;;;;;9.32;2.75;;;;;;;10.92;100.00;98573.03;5131983;27;20478;-68
2023/03/10 09:08:12;;;;;;;12.80;3.47;;;;;;;10.94;99.85;98578.28;5133734;27;20031;-68
2023/03/10 09:10:39;;;;;;;10.88;2.67;;;;;;;10.91;100.00;98578.34;5134246;27;20529;-68
2023/03/10 09:13:04;;;;;;;14.23;2.90;;;;;;;10.91;100.00;98579.22;5134200;27;20523;-68
2023/03/10 09:15:30;;;;;;;16.38;2.92;;;;;;;10.91;100.00;98565.13;5133918;27;20039;-68
2023/03/10 09:17:55;;;;;;;10.95;2.78;;;;;;;10.93;100.00;98571.25;5133997;27;20051;-68
2023/03/10 09:20:24;;;;;;;8.63;2.50;;;;;;;10.95;100.00;98574.72;5134016;27;20140;-68
2023/03/10 09:22:53;;;;;;;12.05;2.95;;;;;;;10.94;98.80;98570.34;5133605;27;20022;-68
2023/03/10 09:25:19;;;;;;;9.15;2.90;;;;;;;10.88;95.65;98576.69;5134207;27;20075;-67
2023/03/10 09:27:44;;;;;;;7.88;2.40;;;;;;;10.92;96.91;98574.78;5134097;27;20029;-69
2023/03/10 09:30:10;;;;;;;7.50;2.60;;;;;;;10.91;96.84;98584.50;5134148;27;20166;-67
2023/03/10 09:32:36;;;;;;;9.13;2.80;;;;;;;10.93;97.18;98572.13;5115116;27;20448;-67
2023/03/10 09:35:01;;;;;;;11.32;2.50;;;;;;;10.92;96.99;98574.78;5134035;27;20433;-67
2023/03/10 09:37:26;;;;;;;9.70;2.30;;;;;;;10.89;95.41;98566.97;5133743;27;20039;-68
2023/03/10 09:39:52;;;;;;;8.27;2.65;;;;;;;10.88;96.45;98565.25;5115281;27;20506;-66
2023/03/10 09:42:33;;;;;;;10.27;2.75;;;;;;;10.86;97.05;98559.97;5133725;27;20039;-67
2023/03/10 09:45:16;;;;;;;12.63;2.90;;;;;;;10.81;96.07;98563.66;5133754;27;20038;-66
2023/03/10 09:47:58;;;;;;;13.73;2.78;;;;;;;10.76;95.85;98571.72;5133796;27;20023;-67
2023/03/10 09:50:31;;;;;;;8.10;2.65;;;;;;;10.72;95.98;98570.06;5133504;27;20441;-68
2023/03/10 09:53:02;;;;;;;8.57;2.40;;;;;;;10.70;95.22;98577.13;5133205;27;20030;-68
2023/03/10 09:55:39;;;;;;;8.23;2.72;;;;;;;10.67;94.96;98585.16;5124210;27;20023;-68
2023/03/10 09:58:12;;;;;;;11.30;2.80;;;;;;;10.61;96.11;98586.16;5122071;27;20463;-68
2023/03/10 10:00:42;;;;;;;10.43;2.65;;;;;;;10.59;98.14;98579.22;5121275;27;20050;-69
2023/03/10 10:03:22;;;;;;;7.80;2.25;;;;;;;10.55;99.30;98583.69;5115370;28;20020;-69
2023/03/10 10:05:52;;;;;;;10.10;2.67;;;;;;;10.37;100.00;98600.00;5112530;28;20412;-70
2023/03/10 10:08:25;;;;;;;11.70;2.78;;;;;;;10.21;100.00;98594.19;5112886;28;20465;-70
2023/03/10 10:10:55;;;;;;;11.10;2.63;;;;;;;10.06;100.00;98584.84;5113012;28;20024;-71
2023/03/10 10:13:24;;;;;;;7.13;2.47;;;;;;;10.03;100.00;98584.94;5113086;28;20484;-73
2023/03/10 10:16:03;;;;;;;14.02;2.70;;;;;;;10.04;100.00;98592.81;5094268;28;20023;-72
2023/03/10 10:18:42;;;;;;;8.48;2.63;;;;;;;10.06;100.00;98594.53;5114123;28;20024;-73
2023/03/10 10:21:15;;;;;;;8.93;2.67;;;;;;;10.06;100.00;98607.72;5116879;28;20024;-72
2023/03/10 10:23:49;;;;;;;11.98;2.80;;;;;;;10.00;100.00;98603.47;5116988;28;20448;-72
2023/03/10 10:26:18;;;;;;;10.55;3.17;;;;;;;9.99;100.00;98604.38;5098085;28;20020;-72
2023/03/10 10:28:48;;;;;;;10.30;2.83;;;;;;;9.94;100.00;98608.91;5117054;28;20380;-72
2023/03/10 10:31:19;;;;;;;13.88;2.97;;;;;;;9.91;100.00;98609.81;5116706;28;20406;-71
2023/03/10 10:33:50;;;;;;;12.75;3.38;;;;;;;9.88;100.00;98609.03;5117100;28;20028;-72
2023/03/10 10:36:17;;;;;;;6.13;2.80;;;;;;;9.74;100.00;98597.00;5116699;28;20016;-72
2023/03/10 10:38:48;;;;;;;10.82;2.83;;;;;;;9.75;100.00;98613.69;5098180;28;20024;-71
2023/03/10 10:41:30;;;;;;;10.13;3.03;;;;;;;9.73;100.00;98608.47;5116650;28;20186;-71
2023/03/10 10:44:07;;;;;;;9.93;2.80;;;;;;;9.74;100.00;98604.94;5116474;28;20019;-70
2023/03/10 10:46:32;;;;;;;9.45;2.97;;;;;;;9.75;100.00;98601.38;5116523;28;20060;-71
2023/03/10 10:49:17;;;;;;;9.45;2.83;;;;;;;9.77;100.00;98599.59;5116357;28;20023;-72
2023/03/10 10:51:42;;;;;;;8.75;3.10;;;;;;;9.84;100.00;98594.16;5098042;28;20032;-72
2023/03/10 10:54:31;;;;;;;7.88;2.58;;;;;;;9.88;100.00;98586.16;5116324;28;20540;-72
2023/03/10 10:57:01;;;;;;;8.55;2.60;;;;;;;9.95;100.00;98589.53;5116093;28;20038;-72
2023/03/10 10:59:31;;;;;;;9.73;2.72;;;;;;;9.99;100.00;98588.56;5115983;28;20023;-72
2023/03/10 11:01:58;;;;;;;9.45;2.70;;;;;;;10.02;100.00;98588.47;5115898;28;20031;-71
2023/03/10 11:04:25;;;;;;;13.45;3.00;;;;;;;10.01;100.00;98592.00;5115745;28;20047;-71
2023/03/10 11:06:52;;;;;;;10.95;3.25;;;;;;;9.96;100.00;98575.44;5116203;28;20016;-72
2023/03/10 11:09:18;;;;;;;12.70;2.58;;;;;;;9.99;100.00;98583.28;5116020;28;20023;-72
2023/03/10 11:11:47;;;;;;;11.30;2.90;;;;;;;10.02;100.00;98580.53;5116015;28;20049;-72
2023/03/10 11:14:20;;;;;;;9.02;2.40;;;;;;;9.99;100.00;98576.22;5115885;28;20034;-72
2023/03/10 11:16:56;;;;;;;10.73;2.70;;;;;;;10.06;100.00;98573.44;5115750;28;20031;-71
2023/03/10 11:19:36;;;;;;;6.93;2.47;;;;;;;10.07;100.00;98575.19;5115903;28;20019;-71
2023/03/10 11:22:20;;;;;;;7.45;2.40;;;;;;;10.01;100.00;98558.56;5115798;28;20059;-73
2023/03/10 11:25:11;;;;;;;10.48;3.00;;;;;;;9.97;100.00;98561.31;5115525;28;20089;-72
2023/03/10 11:27:54;;;;;;;9.57;2.40;;;;;;;9.95;100.00;98571.06;5115752;28;20032;-71
2023/03/10 11:30:25;;;;;;;5.55;2.33;;;;;;;9.93;100.00;98570.22;5114792;28;20473;-71